Alamo, Indiana
Current Conditions -  °F | °C
As of 11:35 AM on Thursday 29 Jan 2015 (Local Time) from K4I7 Reporting Station
Haze Haze  
Wind Chill: 27°   Ceiling: 1100
Heat Index: 36°   Visibility: 4mi
Dew Point: 30°   Wind: 14mph
Humidity: 81%   Direction: 270°W
Pressure: 29.9"   Gusts: 25mph
Location:  39.98°N, 87.06°W
Report Text: K4I7 291635Z AUTO 27012G22KT 231V291 4SM HZ OVC011 02/M01 A2990 RMK AO2
Loading
Personal Weather Stations






























Interactive Weather Map New forecast layout! Learn more

10-Day Weather Forecast

Advertisements
Track Severe Weather on mobile